Disclaimer

Please do not use the information listed here in-flight or in-navigation, as they are not provided to us by the airports but are provided by volunteers, so they might be outdated.

Search


Regions


Airport information page

Radio informations:
COCA TWR - 123.5 MHz
RDO - 126.9 MHz
QUITO APP - 119.7 MHz

Airport informations:
Latitude: 00° 27' 46.39" S
Longitude: 076° 59' 12.63" W
Elevation: 834 feet - 254 meters
Operating hours: From sunrise to sunset (SR-SS)
Operating agency: Civil government, landing fees and diplomatic clearance may be required
Timezone: UTC-5
Fuel: N/A

Runway information:
15/33 - 6760 x 90 feet< - >2060 x 27 meters

Recent METARs:
SECO 202100Z 24002KT 9999 FEW020 BKN100 28/23 Q1009 RMK A2979
SECO 202100Z 24002KT 9999 FEW020 BKN100 28/23 Q1009 RMK A2979
SECO 202200Z 17005KT 9999 FEW020 BKN100 27/24 Q1008 RMK A2979

Airport on the map: